Details From YLHI - Lord Howe Island
To YBBN - Brisbane Intl
Flight Number -
Tags Decoded
Created
Modified
Stats Distance 399 nm / 738 km
Max Altitude 0 ft / 0 m
Waypoints 4
Social Downloads 1
Likes 0
Share VATSIM

Download

Looking for another format? Having issues loading an existing format? Contact us
Advertisement - Login to hide

Notes

Decoded

Route

YLHI SCOTT POODL YBBN

ID Type Via Altitude Latitude Longitude Leg Dist Tot Dist Heading (true) Name
O YLHI APT - 0 ft / 0 m -31.53674˚ 159.07171˚ - 0 nm - -
SCOTT FIX - 0 ft / 0 m -27.86833˚ 153.80000˚ 352 nm 352 nm 307° / 310° -
POODL FIX - 0 ft / 0 m -27.52028˚ 153.33889˚ 32 nm 384 nm 310° / 311° -
O YBBN APT - 0 ft / 0 m -27.40786˚ 153.10379˚ 14 nm 398 nm 298° / 298° -

Altitude Profile

Advertisement - Login to hide

Weather


0- 5 10 15 20 25 30 35+ Temperature / ° C

Clouds and Precipitation
Forecast for 2017-12-15 18:00 UTC. Updated an hour ago

Ground ~20,000 ft ~40,000 ft Winds

YLHI

Details ICAO YLHI (LDH)
Name Lord Howe Island
Region Australia
Timezone Unknown (UTC+0.0)
Stats Elevation 16 ft / 5 m (AMSL)
Location -31.538405° 159.075986°
Runways 1
Magnetic Variation 14.054° E

METAR

YLHI 151600Z AUTO 07009KT 9999 // NCD 22/17 Q1018

Decode

TAF

TAF YLHI 151140Z 1512/1612 05012KT 9999 SCT025

Decode

Departure Runways

ID Width Length Bearing (true) Bearing (mag) Surface Threshold Offset Overrun Length
10 98 ft / 30 m 2,902 ft / 885 m 114.50° 100.45° Asphalt 0 ft / 0 m 194 ft / 59 m
28 98 ft / 30 m 2,902 ft / 885 m 294.50° 280.45° Asphalt 322 ft / 98 m 190 ft / 58 m

YBBN

Details ICAO YBBN (BNE)
Name Brisbane Intl
Region Australia
Timezone Australia/Brisbane (UTC+10.0)
Stats Elevation 12 ft / 4 m (AMSL)
Location -27.375714° 153.127710°
Runways 2
Magnetic Variation 10.985° E

METAR

YBBN 151600Z 04006KT 9999 -SHRA FEW016 SCT020 23/21 Q1013

Decode

TAF

TAF YBBN 151112Z 1512/1618 04010KT 9999 FEW018 FM151800 20005KT 9999 FEW018 FM152200 06010KT 9999 FEW035 FM161600 20005KT 9999 FEW018

Decode

Destination Runways

ID Width Length Bearing (true) Bearing (mag) Surface Threshold Offset Overrun Length
01 148 ft / 45 m 11,805 ft / 3,598 m 26.93° 15.95° Asphalt 197 ft / 60 m 0 ft / 0 m
14 98 ft / 30 m 5,787 ft / 1,764 m 145.66° 134.68° Asphalt 197 ft / 60 m 0 ft / 0 m
19 148 ft / 45 m 11,805 ft / 3,598 m 206.92° 195.94° Asphalt 0 ft / 0 m 0 ft / 0 m
32 98 ft / 30 m 5,787 ft / 1,764 m 325.66° 314.68° Asphalt 197 ft / 60 m 0 ft / 0 m

Approach Navaids

Runway Type Ident Frequency Range Bearing (true) Bearing (mag) Slope Elevation
01 Localiser IBA 109.50 MHz 18 nm / 33 km 26.70° 15.71° - 28 ft / 9 m (AMSL)
01 Glidescope IBA 109.50 MHz 10 nm / 19 km 26.92° 15.94° 3.00° 13 ft / 4 m (AMSL)
19 Localiser IBS 110.10 MHz 18 nm / 33 km 206.97° 195.98° - 49 ft / 15 m (AMSL)
19 Glidescope IBS 110.10 MHz 10 nm / 19 km 206.92° 195.94° 3.00° 13 ft / 4 m (AMSL)

Popular Alternatives